JST weather

John Murtha Johnstown Cambria County Airport
Johnstown, Pennsylvania, United States

Public forecast

Using degrees Fahrenheit for public forecast. Weather courtesy of forecast.io.

METAR (pilot weather report)

Retrieved 2019/05/19 15:54 UTC (1 hour ago):

KJST 191554Z AUTO 21007KT 10SM CLR 25/17 A3001 RMK AO2 SLP148 T02500172

TAF (pilot weather forecast)

Retrieved 2019/05/19 12:54 UTC (4 hours ago):

TAF KJST 191150Z 1912/2012 19006KT P6SM SCT060 FM191600 22010G18KT P6SM -SHRA BKN050 FM191800 22010G18KT P6SM -SHRA VCTS OVC035CB FM200000 22010KT P6SM BKN050